sensor_id;sensor_type;location;lat;lon;timestamp;P1;durP1;ratioP1;P2;durP2;ratioP2
77984;SDS011;67177;47.240;-1.546;2023-06-19T00:01:17;4.37;;;1.80;;
77984;SDS011;67177;47.240;-1.546;2023-06-19T00:03:43;4.30;;;1.67;;
77984;SDS011;67177;47.240;-1.546;2023-06-19T00:06:08;4.38;;;1.60;;
77984;SDS011;67177;47.240;-1.546;2023-06-19T00:08:34;4.30;;;1.60;;
77984;SDS011;67177;47.240;-1.546;2023-06-19T00:11:01;4.30;;;1.40;;
77984;SDS011;67177;47.240;-1.546;2023-06-19T00:13:27;4.18;;;1.40;;
77984;SDS011;67177;47.240;-1.546;2023-06-19T00:15:53;4.30;;;1.40;;
77984;SDS011;67177;47.240;-1.546;2023-06-19T00:18:18;4.30;;;1.70;;
77984;SDS011;67177;47.240;-1.546;2023-06-19T00:20:45;4.37;;;1.70;;
77984;SDS011;67177;47.240;-1.546;2023-06-19T00:23:11;4.20;;;1.70;;
77984;SDS011;67177;47.240;-1.546;2023-06-19T00:25:39;5.15;;;1.60;;
77984;SDS011;67177;47.240;-1.546;2023-06-19T00:28:06;4.13;;;1.40;;
77984;SDS011;67177;47.240;-1.546;2023-06-19T00:30:36;4.07;;;1.55;;
77984;SDS011;67177;47.240;-1.546;2023-06-19T00:33:02;4.10;;;1.40;;
77984;SDS011;67177;47.240;-1.546;2023-06-19T00:35:29;4.53;;;1.60;;
77984;SDS011;67177;47.240;-1.546;2023-06-19T00:37:55;4.70;;;1.80;;
77984;SDS011;67177;47.240;-1.546;2023-06-19T00:40:24;5.20;;;2.00;;
77984;SDS011;67177;47.240;-1.546;2023-06-19T00:42:53;4.70;;;1.75;;
77984;SDS011;67177;47.240;-1.546;2023-06-19T00:45:18;4.70;;;1.80;;
77984;SDS011;67177;47.240;-1.546;2023-06-19T00:47:44;4.73;;;1.80;;
77984;SDS011;67177;47.240;-1.546;2023-06-19T00:50:10;4.57;;;1.75;;
77984;SDS011;67177;47.240;-1.546;2023-06-19T00:52:36;5.03;;;1.83;;
77984;SDS011;67177;47.240;-1.546;2023-06-19T00:55:03;5.30;;;2.10;;
77984;SDS011;67177;47.240;-1.546;2023-06-19T00:57:30;4.90;;;1.90;;
77984;SDS011;67177;47.240;-1.546;2023-06-19T00:59:57;4.55;;;1.63;;
77984;SDS011;67177;47.240;-1.546;2023-06-19T01:02:23;4.20;;;1.60;;
77984;SDS011;67177;47.240;-1.546;2023-06-19T01:04:50;5.33;;;2.10;;
77984;SDS011;67177;47.240;-1.546;2023-06-19T01:10:06;4.80;;;2.00;;
77984;SDS011;67177;47.240;-1.546;2023-06-19T01:12:35;4.57;;;1.80;;
77984;SDS011;67177;47.240;-1.546;2023-06-19T01:15:05;4.85;;;1.90;;
77984;SDS011;67177;47.240;-1.546;2023-06-19T01:17:33;4.67;;;1.97;;
77984;SDS011;67177;47.240;-1.546;2023-06-19T01:20:00;5.03;;;1.85;;
77984;SDS011;67177;47.240;-1.546;2023-06-19T01:22:31;5.53;;;2.28;;
77984;SDS011;67177;47.240;-1.546;2023-06-19T01:24:57;5.28;;;2.03;;
77984;SDS011;67177;47.240;-1.546;2023-06-19T01:27:24;5.13;;;2.33;;
77984;SDS011;67177;47.240;-1.546;2023-06-19T01:29:54;5.78;;;2.20;;
77984;SDS011;67177;47.240;-1.546;2023-06-19T01:32:44;5.25;;;2.17;;
77984;SDS011;67177;47.240;-1.546;2023-06-19T01:35:19;5.13;;;2.20;;
77984;SDS011;67177;47.240;-1.546;2023-06-19T01:37:48;5.47;;;2.60;;
77984;SDS011;67177;47.240;-1.546;2023-06-19T01:40:16;5.83;;;2.23;;
77984;SDS011;67177;47.240;-1.546;2023-06-19T01:42:45;5.38;;;2.40;;
77984;SDS011;67177;47.240;-1.546;2023-06-19T01:45:11;6.53;;;2.80;;
77984;SDS011;67177;47.240;-1.546;2023-06-19T01:47:37;5.57;;;2.60;;
77984;SDS011;67177;47.240;-1.546;2023-06-19T01:50:03;7.47;;;2.80;;
77984;SDS011;67177;47.240;-1.546;2023-06-19T01:52:29;5.68;;;2.78;;
77984;SDS011;67177;47.240;-1.546;2023-06-19T01:54:55;5.70;;;2.83;;
77984;SDS011;67177;47.240;-1.546;2023-06-19T01:57:21;5.90;;;2.72;;
77984;SDS011;67177;47.240;-1.546;2023-06-19T01:59:47;5.30;;;2.50;;
77984;SDS011;67177;47.240;-1.546;2023-06-19T02:02:12;6.03;;;2.72;;
77984;SDS011;67177;47.240;-1.546;2023-06-19T02:04:38;6.57;;;3.03;;
77984;SDS011;67177;47.240;-1.546;2023-06-19T02:07:04;5.23;;;2.40;;
77984;SDS011;67177;47.240;-1.546;2023-06-19T02:09:30;6.10;;;2.78;;
77984;SDS011;67177;47.240;-1.546;2023-06-19T02:11:56;5.60;;;2.50;;
77984;SDS011;67177;47.240;-1.546;2023-06-19T02:14:21;5.50;;;2.60;;
77984;SDS011;67177;47.240;-1.546;2023-06-19T02:16:48;5.67;;;2.60;;
77984;SDS011;67177;47.240;-1.546;2023-06-19T02:19:13;5.10;;;2.15;;
77984;SDS011;67177;47.240;-1.546;2023-06-19T02:21:39;5.83;;;2.57;;
77984;SDS011;67177;47.240;-1.546;2023-06-19T02:24:05;6.13;;;2.80;;
77984;SDS011;67177;47.240;-1.546;2023-06-19T02:26:31;6.00;;;2.63;;
77984;SDS011;67177;47.240;-1.546;2023-06-19T02:28:57;6.10;;;2.95;;
77984;SDS011;67177;47.240;-1.546;2023-06-19T02:31:23;6.83;;;3.20;;
77984;SDS011;67177;47.240;-1.546;2023-06-19T02:33:49;6.13;;;2.67;;
77984;SDS011;67177;47.240;-1.546;2023-06-19T02:36:15;6.90;;;3.17;;
77984;SDS011;67177;47.240;-1.546;2023-06-19T02:38:47;7.50;;;3.45;;
77984;SDS011;67177;47.240;-1.546;2023-06-19T02:41:14;7.55;;;3.90;;
77984;SDS011;67177;47.240;-1.546;2023-06-19T02:43:40;6.73;;;3.43;;
77984;SDS011;67177;47.240;-1.546;2023-06-19T02:46:07;6.95;;;3.55;;
77984;SDS011;67177;47.240;-1.546;2023-06-19T02:48:33;7.85;;;4.28;;
77984;SDS011;67177;47.240;-1.546;2023-06-19T02:50:59;8.70;;;4.23;;
77984;SDS011;67177;47.240;-1.546;2023-06-19T02:53:24;9.10;;;4.20;;
77984;SDS011;67177;47.240;-1.546;2023-06-19T02:55:50;7.80;;;4.10;;
77984;SDS011;67177;47.240;-1.546;2023-06-19T02:58:16;6.80;;;3.60;;
77984;SDS011;67177;47.240;-1.546;2023-06-19T03:00:42;7.33;;;3.80;;
77984;SDS011;67177;47.240;-1.546;2023-06-19T03:03:08;6.97;;;3.58;;
77984;SDS011;67177;47.240;-1.546;2023-06-19T03:05:34;8.02;;;4.20;;
77984;SDS011;67177;47.240;-1.546;2023-06-19T03:08:00;7.13;;;3.67;;
77984;SDS011;67177;47.240;-1.546;2023-06-19T03:10:25;7.57;;;4.00;;
77984;SDS011;67177;47.240;-1.546;2023-06-19T03:12:51;8.50;;;4.47;;
77984;SDS011;67177;47.240;-1.546;2023-06-19T03:15:16;7.60;;;3.97;;
77984;SDS011;67177;47.240;-1.546;2023-06-19T03:17:42;9.00;;;4.60;;
77984;SDS011;67177;47.240;-1.546;2023-06-19T03:20:08;8.03;;;4.20;;
77984;SDS011;67177;47.240;-1.546;2023-06-19T03:22:37;8.18;;;4.40;;
77984;SDS011;67177;47.240;-1.546;2023-06-19T03:25:07;8.57;;;4.40;;
77984;SDS011;67177;47.240;-1.546;2023-06-19T03:27:33;8.27;;;4.10;;
77984;SDS011;67177;47.240;-1.546;2023-06-19T03:29:59;8.18;;;3.90;;
77984;SDS011;67177;47.240;-1.546;2023-06-19T03:32:24;7.72;;;4.35;;
77984;SDS011;67177;47.240;-1.546;2023-06-19T03:34:50;7.60;;;3.93;;
77984;SDS011;67177;47.240;-1.546;2023-06-19T03:37:16;8.13;;;4.40;;
77984;SDS011;67177;47.240;-1.546;2023-06-19T03:39:42;8.48;;;4.63;;
77984;SDS011;67177;47.240;-1.546;2023-06-19T03:42:08;8.88;;;4.80;;
77984;SDS011;67177;47.240;-1.546;2023-06-19T03:44:33;8.07;;;4.13;;
77984;SDS011;67177;47.240;-1.546;2023-06-19T03:46:59;8.60;;;4.50;;
77984;SDS011;67177;47.240;-1.546;2023-06-19T03:49:25;8.93;;;4.67;;
77984;SDS011;67177;47.240;-1.546;2023-06-19T03:51:51;6.93;;;3.70;;
77984;SDS011;67177;47.240;-1.546;2023-06-19T03:54:19;8.60;;;4.72;;
77984;SDS011;67177;47.240;-1.546;2023-06-19T03:56:45;8.97;;;4.70;;
77984;SDS011;67177;47.240;-1.546;2023-06-19T03:59:11;8.55;;;4.63;;
77984;SDS011;67177;47.240;-1.546;2023-06-19T04:01:36;8.33;;;4.47;;
77984;SDS011;67177;47.240;-1.546;2023-06-19T04:04:02;7.63;;;4.53;;
77984;SDS011;67177;47.240;-1.546;2023-06-19T04:06:28;9.53;;;4.83;;
77984;SDS011;67177;47.240;-1.546;2023-06-19T04:08:53;9.20;;;4.95;;
77984;SDS011;67177;47.240;-1.546;2023-06-19T04:11:19;9.03;;;4.73;;
77984;SDS011;67177;47.240;-1.546;2023-06-19T04:13:45;9.07;;;4.90;;
77984;SDS011;67177;47.240;-1.546;2023-06-19T04:16:11;8.82;;;5.07;;
77984;SDS011;67177;47.240;-1.546;2023-06-19T04:18:37;9.13;;;5.10;;
77984;SDS011;67177;47.240;-1.546;2023-06-19T04:21:03;8.50;;;4.90;;
77984;SDS011;67177;47.240;-1.546;2023-06-19T04:23:29;7.97;;;4.40;;
77984;SDS011;67177;47.240;-1.546;2023-06-19T04:25:54;9.70;;;5.03;;
77984;SDS011;67177;47.240;-1.546;2023-06-19T04:28:20;9.00;;;5.07;;
77984;SDS011;67177;47.240;-1.546;2023-06-19T04:30:45;9.43;;;4.87;;
77984;SDS011;67177;47.240;-1.546;2023-06-19T04:33:11;8.13;;;4.55;;
77984;SDS011;67177;47.240;-1.546;2023-06-19T04:35:37;8.50;;;4.60;;
77984;SDS011;67177;47.240;-1.546;2023-06-19T04:38:05;8.63;;;4.57;;
77984;SDS011;67177;47.240;-1.546;2023-06-19T04:40:31;9.13;;;4.90;;
77984;SDS011;67177;47.240;-1.546;2023-06-19T04:42:57;9.55;;;4.80;;
77984;SDS011;67177;47.240;-1.546;2023-06-19T04:45:23;9.85;;;5.30;;
77984;SDS011;67177;47.240;-1.546;2023-06-19T04:47:49;8.48;;;4.88;;
77984;SDS011;67177;47.240;-1.546;2023-06-19T04:50:15;8.63;;;4.93;;
77984;SDS011;67177;47.240;-1.546;2023-06-19T04:52:41;8.43;;;4.70;;
77984;SDS011;67177;47.240;-1.546;2023-06-19T04:55:07;8.32;;;4.32;;
77984;SDS011;67177;47.240;-1.546;2023-06-19T04:57:36;7.37;;;3.90;;
77984;SDS011;67177;47.240;-1.546;2023-06-19T05:00:05;7.32;;;3.47;;
77984;SDS011;67177;47.240;-1.546;2023-06-19T05:02:32;6.90;;;3.40;;
77984;SDS011;67177;47.240;-1.546;2023-06-19T05:04:58;6.05;;;3.08;;
77984;SDS011;67177;47.240;-1.546;2023-06-19T05:07:28;5.78;;;2.88;;
77984;SDS011;67177;47.240;-1.546;2023-06-19T05:10:00;5.97;;;2.80;;
77984;SDS011;67177;47.240;-1.546;2023-06-19T05:12:27;5.25;;;2.58;;
77984;SDS011;67177;47.240;-1.546;2023-06-19T05:14:52;5.45;;;2.63;;
77984;SDS011;67177;47.240;-1.546;2023-06-19T05:17:18;6.23;;;2.90;;
77984;SDS011;67177;47.240;-1.546;2023-06-19T05:19:44;5.67;;;2.63;;
77984;SDS011;67177;47.240;-1.546;2023-06-19T05:22:09;6.82;;;3.30;;
77984;SDS011;67177;47.240;-1.546;2023-06-19T05:24:35;7.30;;;3.43;;
77984;SDS011;67177;47.240;-1.546;2023-06-19T05:27:02;6.70;;;3.65;;
77984;SDS011;67177;47.240;-1.546;2023-06-19T05:29:28;7.75;;;3.90;;
77984;SDS011;67177;47.240;-1.546;2023-06-19T05:31:55;8.40;;;4.15;;
77984;SDS011;67177;47.240;-1.546;2023-06-19T05:34:21;7.67;;;3.90;;
77984;SDS011;67177;47.240;-1.546;2023-06-19T05:36:47;7.25;;;4.00;;
77984;SDS011;67177;47.240;-1.546;2023-06-19T05:39:13;8.48;;;3.95;;
77984;SDS011;67177;47.240;-1.546;2023-06-19T05:41:39;7.47;;;4.10;;
77984;SDS011;67177;47.240;-1.546;2023-06-19T05:44:05;7.32;;;3.83;;
77984;SDS011;67177;47.240;-1.546;2023-06-19T05:46:31;8.37;;;4.33;;
77984;SDS011;67177;47.240;-1.546;2023-06-19T05:48:56;7.68;;;3.92;;
77984;SDS011;67177;47.240;-1.546;2023-06-19T05:51:22;8.00;;;4.20;;
77984;SDS011;67177;47.240;-1.546;2023-06-19T05:53:48;7.30;;;4.00;;
77984;SDS011;67177;47.240;-1.546;2023-06-19T05:56:17;6.70;;;3.53;;
77984;SDS011;67177;47.240;-1.546;2023-06-19T05:58:43;7.38;;;3.90;;
77984;SDS011;67177;47.240;-1.546;2023-06-19T06:01:08;7.47;;;4.20;;
77984;SDS011;67177;47.240;-1.546;2023-06-19T06:03:34;7.07;;;3.87;;
77984;SDS011;67177;47.240;-1.546;2023-06-19T06:06:01;7.05;;;3.80;;
77984;SDS011;67177;47.240;-1.546;2023-06-19T06:08:30;7.45;;;4.13;;
77984;SDS011;67177;47.240;-1.546;2023-06-19T06:10:56;8.55;;;3.88;;
77984;SDS011;67177;47.240;-1.546;2023-06-19T06:13:21;6.47;;;3.43;;
77984;SDS011;67177;47.240;-1.546;2023-06-19T06:15:47;6.53;;;3.33;;
77984;SDS011;67177;47.240;-1.546;2023-06-19T06:18:13;6.90;;;3.40;;
77984;SDS011;67177;47.240;-1.546;2023-06-19T06:20:38;6.00;;;3.20;;
77984;SDS011;67177;47.240;-1.546;2023-06-19T06:23:04;6.68;;;3.42;;
77984;SDS011;67177;47.240;-1.546;2023-06-19T06:25:30;6.30;;;3.60;;
77984;SDS011;67177;47.240;-1.546;2023-06-19T06:27:55;6.50;;;3.50;;
77984;SDS011;67177;47.240;-1.546;2023-06-19T06:30:21;6.20;;;3.37;;
77984;SDS011;67177;47.240;-1.546;2023-06-19T06:32:48;6.97;;;3.50;;
77984;SDS011;67177;47.240;-1.546;2023-06-19T06:35:14;6.60;;;3.50;;
77984;SDS011;67177;47.240;-1.546;2023-06-19T06:37:40;6.50;;;3.25;;
77984;SDS011;67177;47.240;-1.546;2023-06-19T06:40:06;6.10;;;3.17;;
77984;SDS011;67177;47.240;-1.546;2023-06-19T06:42:36;6.75;;;3.30;;
77984;SDS011;67177;47.240;-1.546;2023-06-19T06:45:04;5.80;;;3.15;;
77984;SDS011;67177;47.240;-1.546;2023-06-19T06:47:31;5.78;;;2.97;;
77984;SDS011;67177;47.240;-1.546;2023-06-19T06:49:57;5.97;;;3.20;;
77984;SDS011;67177;47.240;-1.546;2023-06-19T06:52:22;6.63;;;3.28;;
77984;SDS011;67177;47.240;-1.546;2023-06-19T06:54:49;6.65;;;3.15;;
77984;SDS011;67177;47.240;-1.546;2023-06-19T06:57:14;6.07;;;3.20;;
77984;SDS011;67177;47.240;-1.546;2023-06-19T06:59:40;5.72;;;3.03;;
77984;SDS011;67177;47.240;-1.546;2023-06-19T07:02:06;6.03;;;3.00;;
77984;SDS011;67177;47.240;-1.546;2023-06-19T07:04:31;5.57;;;2.70;;
77984;SDS011;67177;47.240;-1.546;2023-06-19T07:06:57;5.90;;;2.90;;
77984;SDS011;67177;47.240;-1.546;2023-06-19T07:09:23;5.63;;;2.72;;
77984;SDS011;67177;47.240;-1.546;2023-06-19T07:11:49;5.30;;;2.67;;
77984;SDS011;67177;47.240;-1.546;2023-06-19T07:14:15;5.40;;;2.50;;
77984;SDS011;67177;47.240;-1.546;2023-06-19T07:16:43;5.10;;;2.38;;
77984;SDS011;67177;47.240;-1.546;2023-06-19T07:19:10;5.35;;;2.15;;
77984;SDS011;67177;47.240;-1.546;2023-06-19T07:21:36;5.03;;;2.40;;
77984;SDS011;67177;47.240;-1.546;2023-06-19T07:24:03;5.13;;;2.10;;
77984;SDS011;67177;47.240;-1.546;2023-06-19T07:26:30;5.65;;;2.40;;
77984;SDS011;67177;47.240;-1.546;2023-06-19T07:28:55;5.15;;;2.30;;
77984;SDS011;67177;47.240;-1.546;2023-06-19T07:31:21;5.77;;;2.63;;
77984;SDS011;67177;47.240;-1.546;2023-06-19T07:33:47;5.80;;;2.55;;
77984;SDS011;67177;47.240;-1.546;2023-06-19T07:36:13;5.80;;;2.60;;
77984;SDS011;67177;47.240;-1.546;2023-06-19T07:38:41;5.30;;;2.40;;
77984;SDS011;67177;47.240;-1.546;2023-06-19T07:41:07;4.68;;;2.10;;
77984;SDS011;67177;47.240;-1.546;2023-06-19T07:43:34;5.45;;;2.40;;
77984;SDS011;67177;47.240;-1.546;2023-06-19T07:46:01;4.95;;;2.20;;
77984;SDS011;67177;47.240;-1.546;2023-06-19T07:48:27;4.53;;;2.15;;
77984;SDS011;67177;47.240;-1.546;2023-06-19T07:50:53;4.70;;;1.80;;
77984;SDS011;67177;47.240;-1.546;2023-06-19T07:53:18;4.95;;;2.20;;
77984;SDS011;67177;47.240;-1.546;2023-06-19T07:55:44;5.53;;;2.20;;
77984;SDS011;67177;47.240;-1.546;2023-06-19T07:58:10;5.55;;;2.20;;
77984;SDS011;67177;47.240;-1.546;2023-06-19T08:00:36;6.45;;;2.00;;
77984;SDS011;67177;47.240;-1.546;2023-06-19T08:03:02;4.77;;;2.00;;
77984;SDS011;67177;47.240;-1.546;2023-06-19T08:05:28;4.43;;;1.70;;
77984;SDS011;67177;47.240;-1.546;2023-06-19T08:07:53;4.70;;;1.83;;
77984;SDS011;67177;47.240;-1.546;2023-06-19T08:10:19;4.22;;;1.65;;
77984;SDS011;67177;47.240;-1.546;2023-06-19T08:12:45;4.05;;;1.63;;
77984;SDS011;67177;47.240;-1.546;2023-06-19T08:15:11;4.03;;;1.60;;
77984;SDS011;67177;47.240;-1.546;2023-06-19T08:17:40;4.28;;;1.55;;
77984;SDS011;67177;47.240;-1.546;2023-06-19T08:20:07;4.18;;;1.40;;
77984;SDS011;67177;47.240;-1.546;2023-06-19T08:22:33;4.30;;;1.80;;
77984;SDS011;67177;47.240;-1.546;2023-06-19T08:24:59;4.20;;;1.70;;
77984;SDS011;67177;47.240;-1.546;2023-06-19T08:27:25;4.43;;;1.70;;
77984;SDS011;67177;47.240;-1.546;2023-06-19T08:29:51;4.60;;;1.57;;
77984;SDS011;67177;47.240;-1.546;2023-06-19T08:32:16;4.25;;;1.67;;
77984;SDS011;67177;47.240;-1.546;2023-06-19T08:34:42;4.23;;;1.53;;
77984;SDS011;67177;47.240;-1.546;2023-06-19T08:37:08;3.80;;;1.40;;
77984;SDS011;67177;47.240;-1.546;2023-06-19T08:39:34;4.47;;;1.70;;
77984;SDS011;67177;47.240;-1.546;2023-06-19T08:42:03;4.68;;;1.80;;
77984;SDS011;67177;47.240;-1.546;2023-06-19T08:44:30;4.32;;;1.77;;
77984;SDS011;67177;47.240;-1.546;2023-06-19T08:46:57;5.63;;;2.10;;
77984;SDS011;67177;47.240;-1.546;2023-06-19T08:49:22;4.95;;;2.03;;
77984;SDS011;67177;47.240;-1.546;2023-06-19T08:51:48;4.30;;;1.73;;
77984;SDS011;67177;47.240;-1.546;2023-06-19T08:54:14;5.77;;;2.70;;
77984;SDS011;67177;47.240;-1.546;2023-06-19T08:56:40;5.18;;;2.58;;
77984;SDS011;67177;47.240;-1.546;2023-06-19T09:01:35;5.00;;;2.40;;
77984;SDS011;67177;47.240;-1.546;2023-06-19T09:04:11;5.10;;;2.65;;
77984;SDS011;67177;47.240;-1.546;2023-06-19T09:06:48;5.68;;;2.90;;
77984;SDS011;67177;47.240;-1.546;2023-06-19T09:09:15;6.45;;;3.30;;
77984;SDS011;67177;47.240;-1.546;2023-06-19T09:11:42;5.80;;;3.30;;
77984;SDS011;67177;47.240;-1.546;2023-06-19T09:14:10;6.10;;;2.90;;
77984;SDS011;67177;47.240;-1.546;2023-06-19T09:16:39;5.47;;;2.63;;
77984;SDS011;67177;47.240;-1.546;2023-06-19T09:19:06;6.07;;;2.40;;
77984;SDS011;67177;47.240;-1.546;2023-06-19T09:21:34;5.13;;;2.35;;
77984;SDS011;67177;47.240;-1.546;2023-06-19T09:24:04;6.15;;;2.58;;
77984;SDS011;67177;47.240;-1.546;2023-06-19T09:26:34;5.30;;;2.63;;
77984;SDS011;67177;47.240;-1.546;2023-06-19T09:29:11;4.95;;;2.40;;
77984;SDS011;67177;47.240;-1.546;2023-06-19T09:31:38;4.40;;;1.95;;
77984;SDS011;67177;47.240;-1.546;2023-06-19T09:34:06;4.75;;;2.03;;
77984;SDS011;67177;47.240;-1.546;2023-06-19T09:36:32;4.65;;;1.90;;
77984;SDS011;67177;47.240;-1.546;2023-06-19T09:38:59;5.00;;;2.00;;
77984;SDS011;67177;47.240;-1.546;2023-06-19T09:41:28;4.70;;;2.20;;
77984;SDS011;67177;47.240;-1.546;2023-06-19T09:43:55;4.75;;;1.98;;
77984;SDS011;67177;47.240;-1.546;2023-06-19T09:46:29;4.88;;;2.00;;
77984;SDS011;67177;47.240;-1.546;2023-06-19T09:49:00;5.07;;;2.08;;
77984;SDS011;67177;47.240;-1.546;2023-06-19T09:51:31;5.18;;;2.00;;
77984;SDS011;67177;47.240;-1.546;2023-06-19T09:54:02;4.55;;;1.80;;
77984;SDS011;67177;47.240;-1.546;2023-06-19T09:56:29;5.05;;;2.20;;
77984;SDS011;67177;47.240;-1.546;2023-06-19T09:58:56;5.82;;;2.20;;
77984;SDS011;67177;47.240;-1.546;2023-06-19T10:01:25;4.75;;;2.10;;
77984;SDS011;67177;47.240;-1.546;2023-06-19T10:04:01;5.35;;;2.38;;
77984;SDS011;67177;47.240;-1.546;2023-06-19T10:06:31;5.28;;;2.10;;
77984;SDS011;67177;47.240;-1.546;2023-06-19T10:09:05;4.82;;;2.00;;
77984;SDS011;67177;47.240;-1.546;2023-06-19T10:11:44;4.97;;;2.08;;
77984;SDS011;67177;47.240;-1.546;2023-06-19T10:14:13;5.25;;;2.17;;
77984;SDS011;67177;47.240;-1.546;2023-06-19T10:16:40;5.50;;;2.50;;
77984;SDS011;67177;47.240;-1.546;2023-06-19T10:19:15;4.83;;;2.00;;
77984;SDS011;67177;47.240;-1.546;2023-06-19T10:21:52;5.03;;;2.10;;
77984;SDS011;67177;47.240;-1.546;2023-06-19T10:24:18;4.63;;;1.90;;
77984;SDS011;67177;47.240;-1.546;2023-06-19T10:26:58;4.90;;;2.03;;
77984;SDS011;67177;47.240;-1.546;2023-06-19T10:29:26;5.00;;;2.22;;
77984;SDS011;67177;47.240;-1.546;2023-06-19T10:31:52;5.47;;;2.30;;
77984;SDS011;67177;47.240;-1.546;2023-06-19T10:34:18;4.97;;;2.13;;
77984;SDS011;67177;47.240;-1.546;2023-06-19T10:36:44;5.22;;;2.30;;
77984;SDS011;67177;47.240;-1.546;2023-06-19T10:39:10;5.13;;;2.30;;
77984;SDS011;67177;47.240;-1.546;2023-06-19T10:41:35;4.78;;;2.15;;
77984;SDS011;67177;47.240;-1.546;2023-06-19T10:44:06;5.17;;;2.03;;
77984;SDS011;67177;47.240;-1.546;2023-06-19T10:46:37;4.18;;;1.70;;
77984;SDS011;67177;47.240;-1.546;2023-06-19T10:49:05;4.63;;;2.13;;
77984;SDS011;67177;47.240;-1.546;2023-06-19T10:51:39;4.60;;;2.00;;
77984;SDS011;67177;47.240;-1.546;2023-06-19T10:54:07;5.35;;;2.10;;
77984;SDS011;67177;47.240;-1.546;2023-06-19T10:56:33;5.20;;;2.40;;
77984;SDS011;67177;47.240;-1.546;2023-06-19T10:59:00;5.40;;;2.40;;
77984;SDS011;67177;47.240;-1.546;2023-06-19T11:01:31;4.88;;;2.10;;
77984;SDS011;67177;47.240;-1.546;2023-06-19T11:03:58;5.90;;;2.53;;
77984;SDS011;67177;47.240;-1.546;2023-06-19T11:06:24;4.97;;;2.13;;
77984;SDS011;67177;47.240;-1.546;2023-06-19T11:08:52;5.70;;;2.40;;
77984;SDS011;67177;47.240;-1.546;2023-06-19T11:11:18;5.25;;;2.33;;
77984;SDS011;67177;47.240;-1.546;2023-06-19T11:13:45;4.72;;;2.10;;
77984;SDS011;67177;47.240;-1.546;2023-06-19T11:16:11;4.70;;;2.10;;
77984;SDS011;67177;47.240;-1.546;2023-06-19T11:18:39;5.60;;;2.27;;
77984;SDS011;67177;47.240;-1.546;2023-06-19T11:21:04;6.22;;;2.25;;
77984;SDS011;67177;47.240;-1.546;2023-06-19T11:23:30;5.60;;;2.50;;
77984;SDS011;67177;47.240;-1.546;2023-06-19T11:26:05;6.30;;;2.85;;
77984;SDS011;67177;47.240;-1.546;2023-06-19T11:28:31;6.05;;;2.53;;
77984;SDS011;67177;47.240;-1.546;2023-06-19T11:31:01;5.90;;;2.57;;
77984;SDS011;67177;47.240;-1.546;2023-06-19T11:33:27;5.10;;;2.28;;
77984;SDS011;67177;47.240;-1.546;2023-06-19T11:35:54;4.95;;;2.30;;
77984;SDS011;67177;47.240;-1.546;2023-06-19T11:38:25;5.20;;;2.53;;
77984;SDS011;67177;47.240;-1.546;2023-06-19T11:40:52;4.72;;;2.25;;
77984;SDS011;67177;47.240;-1.546;2023-06-19T11:45:52;6.07;;;2.60;;
77984;SDS011;67177;47.240;-1.546;2023-06-19T11:48:21;7.05;;;3.65;;
77984;SDS011;67177;47.240;-1.546;2023-06-19T11:50:48;5.20;;;2.70;;
77984;SDS011;67177;47.240;-1.546;2023-06-19T11:53:14;6.03;;;3.00;;
77984;SDS011;67177;47.240;-1.546;2023-06-19T11:55:39;5.07;;;2.15;;
77984;SDS011;67177;47.240;-1.546;2023-06-19T11:58:05;5.40;;;2.30;;
77984;SDS011;67177;47.240;-1.546;2023-06-19T12:00:31;5.40;;;2.55;;
77984;SDS011;67177;47.240;-1.546;2023-06-19T12:02:56;4.90;;;2.10;;
77984;SDS011;67177;47.240;-1.546;2023-06-19T12:05:23;5.85;;;2.55;;
77984;SDS011;67177;47.240;-1.546;2023-06-19T12:07:49;5.77;;;2.47;;
77984;SDS011;67177;47.240;-1.546;2023-06-19T12:10:15;6.20;;;2.70;;
77984;SDS011;67177;47.240;-1.546;2023-06-19T12:12:41;7.63;;;3.13;;
77984;SDS011;67177;47.240;-1.546;2023-06-19T12:15:06;5.97;;;3.10;;
77984;SDS011;67177;47.240;-1.546;2023-06-19T12:17:32;5.70;;;2.70;;
77984;SDS011;67177;47.240;-1.546;2023-06-19T12:19:58;6.07;;;2.80;;
77984;SDS011;67177;47.240;-1.546;2023-06-19T12:22:24;5.00;;;2.20;;
77984;SDS011;67177;47.240;-1.546;2023-06-19T12:24:50;5.13;;;2.60;;
77984;SDS011;67177;47.240;-1.546;2023-06-19T12:27:15;5.70;;;2.67;;
77984;SDS011;67177;47.240;-1.546;2023-06-19T12:29:41;5.28;;;2.40;;
77984;SDS011;67177;47.240;-1.546;2023-06-19T12:32:07;5.40;;;2.55;;
77984;SDS011;67177;47.240;-1.546;2023-06-19T12:34:32;6.30;;;3.10;;
77984;SDS011;67177;47.240;-1.546;2023-06-19T12:36:58;5.63;;;2.73;;
77984;SDS011;67177;47.240;-1.546;2023-06-19T12:39:24;6.50;;;3.10;;
77984;SDS011;67177;47.240;-1.546;2023-06-19T12:41:50;5.50;;;2.80;;
77984;SDS011;67177;47.240;-1.546;2023-06-19T12:44:16;5.75;;;2.60;;
77984;SDS011;67177;47.240;-1.546;2023-06-19T12:46:42;5.10;;;2.40;;
77984;SDS011;67177;47.240;-1.546;2023-06-19T12:49:08;5.00;;;2.47;;
77984;SDS011;67177;47.240;-1.546;2023-06-19T12:51:33;5.10;;;2.10;;
77984;SDS011;67177;47.240;-1.546;2023-06-19T12:53:59;5.20;;;2.10;;
77984;SDS011;67177;47.240;-1.546;2023-06-19T12:56:25;6.03;;;2.60;;
77984;SDS011;67177;47.240;-1.546;2023-06-19T12:58:51;6.00;;;2.93;;
77984;SDS011;67177;47.240;-1.546;2023-06-19T13:01:16;6.13;;;2.72;;
77984;SDS011;67177;47.240;-1.546;2023-06-19T13:03:42;5.53;;;2.60;;
77984;SDS011;67177;47.240;-1.546;2023-06-19T13:06:08;6.20;;;3.00;;
77984;SDS011;67177;47.240;-1.546;2023-06-19T13:08:33;6.40;;;3.40;;
77984;SDS011;67177;47.240;-1.546;2023-06-19T13:10:59;6.30;;;3.07;;
77984;SDS011;67177;47.240;-1.546;2023-06-19T13:13:24;6.20;;;3.40;;
77984;SDS011;67177;47.240;-1.546;2023-06-19T13:15:50;5.80;;;3.20;;
77984;SDS011;67177;47.240;-1.546;2023-06-19T13:18:17;6.10;;;3.00;;
77984;SDS011;67177;47.240;-1.546;2023-06-19T13:20:43;6.13;;;3.10;;
77984;SDS011;67177;47.240;-1.546;2023-06-19T13:23:10;6.32;;;3.13;;
77984;SDS011;67177;47.240;-1.546;2023-06-19T13:25:35;6.00;;;2.90;;
77984;SDS011;67177;47.240;-1.546;2023-06-19T13:28:01;5.63;;;2.57;;
77984;SDS011;67177;47.240;-1.546;2023-06-19T13:30:27;5.65;;;2.70;;
77984;SDS011;67177;47.240;-1.546;2023-06-19T13:32:54;5.10;;;2.20;;
77984;SDS011;67177;47.240;-1.546;2023-06-19T13:35:19;6.10;;;2.60;;
77984;SDS011;67177;47.240;-1.546;2023-06-19T13:37:46;6.22;;;2.90;;
77984;SDS011;67177;47.240;-1.546;2023-06-19T13:40:12;5.47;;;2.78;;
77984;SDS011;67177;47.240;-1.546;2023-06-19T13:42:38;6.20;;;2.93;;
77984;SDS011;67177;47.240;-1.546;2023-06-19T13:45:04;5.97;;;2.70;;
77984;SDS011;67177;47.240;-1.546;2023-06-19T13:47:30;5.10;;;2.25;;
77984;SDS011;67177;47.240;-1.546;2023-06-19T13:49:56;4.85;;;2.20;;
77984;SDS011;67177;47.240;-1.546;2023-06-19T13:52:22;5.43;;;2.40;;
77984;SDS011;67177;47.240;-1.546;2023-06-19T13:54:48;4.50;;;1.97;;
77984;SDS011;67177;47.240;-1.546;2023-06-19T13:57:14;4.68;;;1.85;;
77984;SDS011;67177;47.240;-1.546;2023-06-19T13:59:40;5.07;;;2.15;;
77984;SDS011;67177;47.240;-1.546;2023-06-19T14:02:06;6.07;;;2.67;;
77984;SDS011;67177;47.240;-1.546;2023-06-19T14:04:32;5.93;;;2.47;;
77984;SDS011;67177;47.240;-1.546;2023-06-19T14:06:57;5.35;;;2.20;;
77984;SDS011;67177;47.240;-1.546;2023-06-19T14:09:23;4.80;;;2.00;;
77984;SDS011;67177;47.240;-1.546;2023-06-19T14:11:49;5.00;;;2.03;;
77984;SDS011;67177;47.240;-1.546;2023-06-19T14:14:14;4.82;;;1.90;;
77984;SDS011;67177;47.240;-1.546;2023-06-19T14:16:40;5.00;;;2.03;;
77984;SDS011;67177;47.240;-1.546;2023-06-19T14:19:06;4.50;;;1.95;;
77984;SDS011;67177;47.240;-1.546;2023-06-19T14:21:31;4.57;;;1.70;;
77984;SDS011;67177;47.240;-1.546;2023-06-19T14:23:57;4.53;;;2.00;;
77984;SDS011;67177;47.240;-1.546;2023-06-19T14:26:22;5.10;;;2.10;;
77984;SDS011;67177;47.240;-1.546;2023-06-19T14:28:48;5.10;;;2.00;;
77984;SDS011;67177;47.240;-1.546;2023-06-19T14:31:14;5.10;;;2.00;;
77984;SDS011;67177;47.240;-1.546;2023-06-19T14:33:40;4.30;;;1.63;;
77984;SDS011;67177;47.240;-1.546;2023-06-19T14:36:06;4.10;;;1.63;;
77984;SDS011;67177;47.240;-1.546;2023-06-19T14:38:31;4.55;;;1.65;;